sensor_id;sensor_type;location;lat;lon;timestamp;P1;durP1;ratioP1;P2;durP2;ratioP2
6135;SDS011;24008;42.664;23.372;2022-12-19T00:01:08;31.17;;;16.43;;
6135;SDS011;24008;42.664;23.372;2022-12-19T00:03:40;35.83;;;18.43;;
6135;SDS011;24008;42.664;23.372;2022-12-19T00:06:09;36.50;;;18.37;;
6135;SDS011;24008;42.664;23.372;2022-12-19T00:08:36;34.63;;;17.73;;
6135;SDS011;24008;42.664;23.372;2022-12-19T00:11:03;32.33;;;17.67;;
6135;SDS011;24008;42.664;23.372;2022-12-19T00:13:30;34.93;;;18.17;;
6135;SDS011;24008;42.664;23.372;2022-12-19T00:16:01;32.27;;;17.13;;
6135;SDS011;24008;42.664;23.372;2022-12-19T00:18:29;32.63;;;17.20;;
6135;SDS011;24008;42.664;23.372;2022-12-19T00:20:57;32.03;;;16.87;;
6135;SDS011;24008;42.664;23.372;2022-12-19T00:23:28;34.53;;;17.03;;
6135;SDS011;24008;42.664;23.372;2022-12-19T00:26:05;33.30;;;17.20;;
6135;SDS011;24008;42.664;23.372;2022-12-19T00:28:33;33.17;;;16.70;;
6135;SDS011;24008;42.664;23.372;2022-12-19T00:30:59;31.87;;;17.20;;
6135;SDS011;24008;42.664;23.372;2022-12-19T00:33:26;35.57;;;18.63;;
6135;SDS011;24008;42.664;23.372;2022-12-19T00:35:55;32.83;;;16.50;;
6135;SDS011;24008;42.664;23.372;2022-12-19T00:38:23;36.60;;;17.80;;
6135;SDS011;24008;42.664;23.372;2022-12-19T00:40:51;34.10;;;17.70;;
6135;SDS011;24008;42.664;23.372;2022-12-19T00:43:30;34.57;;;17.53;;
6135;SDS011;24008;42.664;23.372;2022-12-19T00:45:57;33.93;;;17.27;;
6135;SDS011;24008;42.664;23.372;2022-12-19T00:48:26;32.20;;;16.77;;
6135;SDS011;24008;42.664;23.372;2022-12-19T00:50:57;33.00;;;18.10;;
6135;SDS011;24008;42.664;23.372;2022-12-19T00:53:24;34.50;;;17.83;;
6135;SDS011;24008;42.664;23.372;2022-12-19T00:55:52;32.67;;;17.13;;
6135;SDS011;24008;42.664;23.372;2022-12-19T00:58:20;36.10;;;17.87;;
6135;SDS011;24008;42.664;23.372;2022-12-19T01:00:47;31.77;;;17.40;;
6135;SDS011;24008;42.664;23.372;2022-12-19T01:03:14;34.47;;;17.70;;
6135;SDS011;24008;42.664;23.372;2022-12-19T01:05:41;34.57;;;17.83;;
6135;SDS011;24008;42.664;23.372;2022-12-19T01:08:08;33.90;;;17.50;;
6135;SDS011;24008;42.664;23.372;2022-12-19T01:10:35;35.27;;;17.03;;
6135;SDS011;24008;42.664;23.372;2022-12-19T01:13:03;31.13;;;16.80;;
6135;SDS011;24008;42.664;23.372;2022-12-19T01:15:29;33.00;;;17.33;;
6135;SDS011;24008;42.664;23.372;2022-12-19T01:17:55;35.00;;;17.97;;
6135;SDS011;24008;42.664;23.372;2022-12-19T01:20:22;31.07;;;16.83;;
6135;SDS011;24008;42.664;23.372;2022-12-19T01:22:49;30.33;;;16.67;;
6135;SDS011;24008;42.664;23.372;2022-12-19T01:25:16;33.60;;;17.13;;
6135;SDS011;24008;42.664;23.372;2022-12-19T01:27:43;33.10;;;17.83;;
6135;SDS011;24008;42.664;23.372;2022-12-19T01:30:12;33.93;;;16.57;;
6135;SDS011;24008;42.664;23.372;2022-12-19T01:32:39;35.07;;;16.97;;
6135;SDS011;24008;42.664;23.372;2022-12-19T01:35:06;37.30;;;17.73;;
6135;SDS011;24008;42.664;23.372;2022-12-19T01:37:33;33.83;;;17.47;;
6135;SDS011;24008;42.664;23.372;2022-12-19T01:40:00;32.03;;;17.63;;
6135;SDS011;24008;42.664;23.372;2022-12-19T01:42:31;34.30;;;18.20;;
6135;SDS011;24008;42.664;23.372;2022-12-19T01:47:55;32.80;;;17.37;;
6135;SDS011;24008;42.664;23.372;2022-12-19T01:50:28;34.73;;;18.40;;
6135;SDS011;24008;42.664;23.372;2022-12-19T01:53:00;37.37;;;18.60;;
6135;SDS011;24008;42.664;23.372;2022-12-19T01:55:28;36.40;;;19.03;;
6135;SDS011;24008;42.664;23.372;2022-12-19T01:57:55;32.77;;;17.67;;
6135;SDS011;24008;42.664;23.372;2022-12-19T02:00:26;32.97;;;17.53;;
6135;SDS011;24008;42.664;23.372;2022-12-19T02:02:55;32.60;;;17.83;;
6135;SDS011;24008;42.664;23.372;2022-12-19T02:05:25;33.70;;;17.57;;
6135;SDS011;24008;42.664;23.372;2022-12-19T02:07:52;35.07;;;17.40;;
6135;SDS011;24008;42.664;23.372;2022-12-19T02:10:19;33.90;;;17.47;;
6135;SDS011;24008;42.664;23.372;2022-12-19T02:12:46;35.67;;;18.03;;
6135;SDS011;24008;42.664;23.372;2022-12-19T02:15:13;31.97;;;17.67;;
6135;SDS011;24008;42.664;23.372;2022-12-19T02:17:46;34.57;;;17.37;;
6135;SDS011;24008;42.664;23.372;2022-12-19T02:32:32;33.80;;;17.87;;
6135;SDS011;24008;42.664;23.372;2022-12-19T02:35:08;33.20;;;17.73;;
6135;SDS011;24008;42.664;23.372;2022-12-19T02:37:43;34.93;;;17.70;;
6135;SDS011;24008;42.664;23.372;2022-12-19T02:40:15;35.73;;;18.03;;
6135;SDS011;24008;42.664;23.372;2022-12-19T02:42:48;36.03;;;18.57;;
6135;SDS011;24008;42.664;23.372;2022-12-19T02:45:20;34.30;;;17.30;;
6135;SDS011;24008;42.664;23.372;2022-12-19T02:47:52;36.03;;;18.30;;
6135;SDS011;24008;42.664;23.372;2022-12-19T02:50:19;34.73;;;17.63;;
6135;SDS011;24008;42.664;23.372;2022-12-19T02:52:47;32.53;;;17.00;;
6135;SDS011;24008;42.664;23.372;2022-12-19T02:55:16;34.67;;;18.13;;
6135;SDS011;24008;42.664;23.372;2022-12-19T02:57:51;34.23;;;17.57;;
6135;SDS011;24008;42.664;23.372;2022-12-19T03:00:25;34.03;;;17.67;;
6135;SDS011;24008;42.664;23.372;2022-12-19T03:02:54;35.07;;;17.30;;
6135;SDS011;24008;42.664;23.372;2022-12-19T03:05:33;37.03;;;18.97;;
6135;SDS011;24008;42.664;23.372;2022-12-19T03:08:07;36.10;;;18.10;;
6135;SDS011;24008;42.664;23.372;2022-12-19T03:10:40;36.87;;;18.63;;
6135;SDS011;24008;42.664;23.372;2022-12-19T03:13:12;35.57;;;17.57;;
6135;SDS011;24008;42.664;23.372;2022-12-19T03:15:44;36.03;;;17.77;;
6135;SDS011;24008;42.664;23.372;2022-12-19T03:18:13;34.60;;;18.30;;
6135;SDS011;24008;42.664;23.372;2022-12-19T03:20:42;35.93;;;17.73;;
6135;SDS011;24008;42.664;23.372;2022-12-19T03:23:13;35.17;;;18.83;;
6135;SDS011;24008;42.664;23.372;2022-12-19T03:25:42;34.40;;;17.83;;
6135;SDS011;24008;42.664;23.372;2022-12-19T03:28:14;35.03;;;18.13;;
6135;SDS011;24008;42.664;23.372;2022-12-19T03:30:46;33.53;;;17.23;;
6135;SDS011;24008;42.664;23.372;2022-12-19T03:33:16;37.10;;;19.13;;
6135;SDS011;24008;42.664;23.372;2022-12-19T03:35:46;38.50;;;19.33;;
6135;SDS011;24008;42.664;23.372;2022-12-19T03:38:15;32.43;;;17.43;;
6135;SDS011;24008;42.664;23.372;2022-12-19T03:40:45;39.13;;;19.90;;
6135;SDS011;24008;42.664;23.372;2022-12-19T03:43:14;33.93;;;17.77;;
6135;SDS011;24008;42.664;23.372;2022-12-19T03:45:46;36.77;;;18.10;;
6135;SDS011;24008;42.664;23.372;2022-12-19T03:48:28;38.57;;;17.53;;
6135;SDS011;24008;42.664;23.372;2022-12-19T03:51:02;37.20;;;17.70;;
6135;SDS011;24008;42.664;23.372;2022-12-19T03:53:39;36.57;;;18.67;;
6135;SDS011;24008;42.664;23.372;2022-12-19T03:56:13;34.63;;;18.53;;
6135;SDS011;24008;42.664;23.372;2022-12-19T03:58:47;33.80;;;17.70;;
6135;SDS011;24008;42.664;23.372;2022-12-19T04:01:21;35.17;;;18.43;;
6135;SDS011;24008;42.664;23.372;2022-12-19T04:03:50;33.87;;;17.93;;
6135;SDS011;24008;42.664;23.372;2022-12-19T04:06:17;34.63;;;17.80;;
6135;SDS011;24008;42.664;23.372;2022-12-19T04:08:44;32.17;;;16.80;;
6135;SDS011;24008;42.664;23.372;2022-12-19T04:11:13;35.93;;;17.73;;
6135;SDS011;24008;42.664;23.372;2022-12-19T04:13:46;35.77;;;17.90;;
6135;SDS011;24008;42.664;23.372;2022-12-19T04:16:17;39.07;;;18.90;;
6135;SDS011;24008;42.664;23.372;2022-12-19T04:18:52;32.87;;;16.87;;
6135;SDS011;24008;42.664;23.372;2022-12-19T04:21:25;37.37;;;18.20;;
6135;SDS011;24008;42.664;23.372;2022-12-19T04:23:56;35.43;;;17.83;;
6135;SDS011;24008;42.664;23.372;2022-12-19T04:26:30;36.87;;;18.60;;
6135;SDS011;24008;42.664;23.372;2022-12-19T04:29:00;35.83;;;18.77;;
6135;SDS011;24008;42.664;23.372;2022-12-19T04:31:29;35.47;;;18.17;;
6135;SDS011;24008;42.664;23.372;2022-12-19T04:33:57;38.30;;;19.50;;
6135;SDS011;24008;42.664;23.372;2022-12-19T04:36:24;33.97;;;18.33;;
6135;SDS011;24008;42.664;23.372;2022-12-19T04:38:51;38.10;;;19.83;;
6135;SDS011;24008;42.664;23.372;2022-12-19T04:41:18;35.53;;;18.43;;
6135;SDS011;24008;42.664;23.372;2022-12-19T04:43:45;39.27;;;18.57;;
6135;SDS011;24008;42.664;23.372;2022-12-19T04:46:12;34.83;;;18.03;;
6135;SDS011;24008;42.664;23.372;2022-12-19T04:48:38;36.57;;;17.33;;
6135;SDS011;24008;42.664;23.372;2022-12-19T04:51:07;35.47;;;18.00;;
6135;SDS011;24008;42.664;23.372;2022-12-19T04:53:33;36.13;;;18.67;;
6135;SDS011;24008;42.664;23.372;2022-12-19T04:56:00;36.20;;;18.20;;
6135;SDS011;24008;42.664;23.372;2022-12-19T04:58:28;34.30;;;17.13;;
6135;SDS011;24008;42.664;23.372;2022-12-19T05:00:58;38.37;;;18.67;;
6135;SDS011;24008;42.664;23.372;2022-12-19T05:03:26;37.90;;;17.93;;
6135;SDS011;24008;42.664;23.372;2022-12-19T05:05:52;38.57;;;18.63;;
6135;SDS011;24008;42.664;23.372;2022-12-19T05:08:29;35.60;;;19.17;;
6135;SDS011;24008;42.664;23.372;2022-12-19T05:10:57;37.57;;;17.90;;
6135;SDS011;24008;42.664;23.372;2022-12-19T05:13:24;37.20;;;18.57;;
6135;SDS011;24008;42.664;23.372;2022-12-19T05:15:54;39.97;;;19.27;;
6135;SDS011;24008;42.664;23.372;2022-12-19T05:18:21;42.30;;;22.00;;
6135;SDS011;24008;42.664;23.372;2022-12-19T05:20:48;39.23;;;18.63;;
6135;SDS011;24008;42.664;23.372;2022-12-19T05:23:15;38.87;;;19.63;;
6135;SDS011;24008;42.664;23.372;2022-12-19T05:25:43;38.43;;;19.43;;
6135;SDS011;24008;42.664;23.372;2022-12-19T05:28:10;41.00;;;18.63;;
6135;SDS011;24008;42.664;23.372;2022-12-19T05:30:37;38.50;;;19.77;;
6135;SDS011;24008;42.664;23.372;2022-12-19T05:33:04;37.80;;;19.20;;
6135;SDS011;24008;42.664;23.372;2022-12-19T05:35:31;35.53;;;18.37;;
6135;SDS011;24008;42.664;23.372;2022-12-19T05:37:58;35.87;;;18.70;;
6135;SDS011;24008;42.664;23.372;2022-12-19T05:40:25;38.30;;;18.70;;
6135;SDS011;24008;42.664;23.372;2022-12-19T05:42:54;37.57;;;18.50;;
6135;SDS011;24008;42.664;23.372;2022-12-19T05:45:20;39.70;;;19.03;;
6135;SDS011;24008;42.664;23.372;2022-12-19T05:47:47;37.27;;;18.60;;
6135;SDS011;24008;42.664;23.372;2022-12-19T05:50:14;37.03;;;18.63;;
6135;SDS011;24008;42.664;23.372;2022-12-19T05:52:42;36.80;;;18.03;;
6135;SDS011;24008;42.664;23.372;2022-12-19T05:55:09;37.50;;;18.80;;
6135;SDS011;24008;42.664;23.372;2022-12-19T05:57:36;35.60;;;18.10;;
6135;SDS011;24008;42.664;23.372;2022-12-19T06:00:05;39.60;;;19.00;;
6135;SDS011;24008;42.664;23.372;2022-12-19T06:02:33;37.90;;;18.57;;
6135;SDS011;24008;42.664;23.372;2022-12-19T06:05:00;40.27;;;19.07;;
6135;SDS011;24008;42.664;23.372;2022-12-19T06:07:26;37.60;;;19.47;;
6135;SDS011;24008;42.664;23.372;2022-12-19T06:09:54;35.73;;;18.87;;
6135;SDS011;24008;42.664;23.372;2022-12-19T06:12:20;34.83;;;18.13;;
6135;SDS011;24008;42.664;23.372;2022-12-19T06:14:47;35.90;;;17.87;;
6135;SDS011;24008;42.664;23.372;2022-12-19T06:17:15;33.83;;;17.17;;
6135;SDS011;24008;42.664;23.372;2022-12-19T06:19:42;39.07;;;18.33;;
6135;SDS011;24008;42.664;23.372;2022-12-19T06:22:09;34.63;;;17.30;;
6135;SDS011;24008;42.664;23.372;2022-12-19T06:24:36;32.77;;;16.20;;
6135;SDS011;24008;42.664;23.372;2022-12-19T06:27:03;36.83;;;18.17;;
6135;SDS011;24008;42.664;23.372;2022-12-19T06:29:30;37.70;;;18.10;;
6135;SDS011;24008;42.664;23.372;2022-12-19T06:31:57;33.87;;;17.60;;
6135;SDS011;24008;42.664;23.372;2022-12-19T06:34:25;33.67;;;17.63;;
6135;SDS011;24008;42.664;23.372;2022-12-19T06:36:52;34.03;;;17.77;;
6135;SDS011;24008;42.664;23.372;2022-12-19T06:39:19;34.83;;;17.80;;
6135;SDS011;24008;42.664;23.372;2022-12-19T06:41:46;37.27;;;18.33;;
6135;SDS011;24008;42.664;23.372;2022-12-19T06:44:30;36.77;;;18.90;;
6135;SDS011;24008;42.664;23.372;2022-12-19T06:46:57;37.50;;;19.60;;
6135;SDS011;24008;42.664;23.372;2022-12-19T06:49:27;39.30;;;20.03;;
6135;SDS011;24008;42.664;23.372;2022-12-19T06:51:53;38.43;;;19.33;;
6135;SDS011;24008;42.664;23.372;2022-12-19T06:54:20;40.73;;;19.70;;
6135;SDS011;24008;42.664;23.372;2022-12-19T06:56:47;39.43;;;19.57;;
6135;SDS011;24008;42.664;23.372;2022-12-19T06:59:14;36.53;;;19.60;;
6135;SDS011;24008;42.664;23.372;2022-12-19T07:01:45;38.37;;;18.77;;
6135;SDS011;24008;42.664;23.372;2022-12-19T07:04:18;40.37;;;20.23;;
6135;SDS011;24008;42.664;23.372;2022-12-19T07:06:51;36.83;;;20.57;;
6135;SDS011;24008;42.664;23.372;2022-12-19T07:09:18;37.77;;;20.30;;
6135;SDS011;24008;42.664;23.372;2022-12-19T07:11:45;46.30;;;21.43;;
6135;SDS011;24008;42.664;23.372;2022-12-19T07:14:12;49.03;;;23.37;;
6135;SDS011;24008;42.664;23.372;2022-12-19T07:16:39;54.73;;;24.73;;
6135;SDS011;24008;42.664;23.372;2022-12-19T07:19:07;49.07;;;24.60;;
6135;SDS011;24008;42.664;23.372;2022-12-19T07:21:34;52.20;;;25.67;;
6135;SDS011;24008;42.664;23.372;2022-12-19T07:24:03;54.33;;;26.50;;
6135;SDS011;24008;42.664;23.372;2022-12-19T07:26:31;53.33;;;25.87;;
6135;SDS011;24008;42.664;23.372;2022-12-19T07:28:58;55.67;;;26.80;;
6135;SDS011;24008;42.664;23.372;2022-12-19T07:31:25;47.07;;;25.27;;
6135;SDS011;24008;42.664;23.372;2022-12-19T07:33:53;51.43;;;26.67;;
6135;SDS011;24008;42.664;23.372;2022-12-19T07:36:19;51.13;;;26.80;;
6135;SDS011;24008;42.664;23.372;2022-12-19T07:38:46;54.47;;;25.87;;
6135;SDS011;24008;42.664;23.372;2022-12-19T07:41:16;53.87;;;25.87;;
6135;SDS011;24008;42.664;23.372;2022-12-19T07:43:42;51.13;;;25.93;;
6135;SDS011;24008;42.664;23.372;2022-12-19T07:46:11;55.17;;;26.53;;
6135;SDS011;24008;42.664;23.372;2022-12-19T07:48:38;50.90;;;25.63;;
6135;SDS011;24008;42.664;23.372;2022-12-19T07:51:05;55.73;;;25.57;;
6135;SDS011;24008;42.664;23.372;2022-12-19T07:53:32;51.47;;;26.33;;
6135;SDS011;24008;42.664;23.372;2022-12-19T07:55:59;54.73;;;27.43;;
6135;SDS011;24008;42.664;23.372;2022-12-19T07:58:27;48.90;;;26.37;;
6135;SDS011;24008;42.664;23.372;2022-12-19T08:00:54;53.17;;;26.10;;
6135;SDS011;24008;42.664;23.372;2022-12-19T08:03:21;52.57;;;26.03;;
6135;SDS011;24008;42.664;23.372;2022-12-19T08:05:48;54.00;;;26.27;;
6135;SDS011;24008;42.664;23.372;2022-12-19T08:08:15;49.03;;;25.57;;
6135;SDS011;24008;42.664;23.372;2022-12-19T08:10:42;52.50;;;26.17;;
6135;SDS011;24008;42.664;23.372;2022-12-19T08:13:09;47.87;;;24.97;;
6135;SDS011;24008;42.664;23.372;2022-12-19T08:15:37;47.17;;;25.13;;
6135;SDS011;24008;42.664;23.372;2022-12-19T08:18:04;50.57;;;26.03;;
6135;SDS011;24008;42.664;23.372;2022-12-19T08:20:31;52.03;;;26.23;;
6135;SDS011;24008;42.664;23.372;2022-12-19T08:22:58;54.07;;;27.50;;
6135;SDS011;24008;42.664;23.372;2022-12-19T08:25:25;50.33;;;25.77;;
6135;SDS011;24008;42.664;23.372;2022-12-19T08:27:56;51.67;;;26.00;;
6135;SDS011;24008;42.664;23.372;2022-12-19T08:30:22;46.83;;;24.23;;
6135;SDS011;24008;42.664;23.372;2022-12-19T08:32:51;48.50;;;25.50;;
6135;SDS011;24008;42.664;23.372;2022-12-19T08:35:18;49.80;;;24.37;;
6135;SDS011;24008;42.664;23.372;2022-12-19T08:37:44;60.63;;;26.63;;
6135;SDS011;24008;42.664;23.372;2022-12-19T08:40:12;51.70;;;27.20;;
6135;SDS011;24008;42.664;23.372;2022-12-19T08:42:38;51.13;;;24.77;;
6135;SDS011;24008;42.664;23.372;2022-12-19T08:45:06;61.73;;;26.80;;
6135;SDS011;24008;42.664;23.372;2022-12-19T08:47:33;49.60;;;24.07;;
6135;SDS011;24008;42.664;23.372;2022-12-19T08:50:01;57.60;;;26.30;;
6135;SDS011;24008;42.664;23.372;2022-12-19T08:52:29;46.67;;;25.27;;
6135;SDS011;24008;42.664;23.372;2022-12-19T08:54:55;48.33;;;25.10;;
6135;SDS011;24008;42.664;23.372;2022-12-19T08:57:22;52.87;;;25.90;;
6135;SDS011;24008;42.664;23.372;2022-12-19T08:59:49;52.47;;;25.77;;
6135;SDS011;24008;42.664;23.372;2022-12-19T09:02:16;52.80;;;26.33;;
6135;SDS011;24008;42.664;23.372;2022-12-19T09:04:42;54.93;;;25.77;;
6135;SDS011;24008;42.664;23.372;2022-12-19T09:07:11;48.03;;;23.67;;
6135;SDS011;24008;42.664;23.372;2022-12-19T09:09:37;51.97;;;24.70;;
6135;SDS011;24008;42.664;23.372;2022-12-19T09:12:04;52.87;;;26.77;;
6135;SDS011;24008;42.664;23.372;2022-12-19T09:14:32;51.63;;;25.53;;
6135;SDS011;24008;42.664;23.372;2022-12-19T09:16:59;57.83;;;25.93;;
6135;SDS011;24008;42.664;23.372;2022-12-19T09:19:26;49.00;;;23.43;;
6135;SDS011;24008;42.664;23.372;2022-12-19T09:21:53;41.63;;;19.47;;
6135;SDS011;24008;42.664;23.372;2022-12-19T09:24:21;40.80;;;21.50;;
6135;SDS011;24008;42.664;23.372;2022-12-19T09:26:48;44.20;;;20.57;;
6135;SDS011;24008;42.664;23.372;2022-12-19T09:29:14;41.97;;;21.33;;
6135;SDS011;24008;42.664;23.372;2022-12-19T09:31:41;44.37;;;21.67;;
6135;SDS011;24008;42.664;23.372;2022-12-19T09:34:08;43.63;;;21.93;;
6135;SDS011;24008;42.664;23.372;2022-12-19T09:36:35;48.07;;;23.77;;
6135;SDS011;24008;42.664;23.372;2022-12-19T09:39:02;41.70;;;20.27;;
6135;SDS011;24008;42.664;23.372;2022-12-19T09:41:39;39.93;;;20.57;;
6135;SDS011;24008;42.664;23.372;2022-12-19T09:44:28;40.33;;;19.73;;
6135;SDS011;24008;42.664;23.372;2022-12-19T09:47:08;38.83;;;19.87;;
6135;SDS011;24008;42.664;23.372;2022-12-19T09:49:39;42.30;;;20.17;;
6135;SDS011;24008;42.664;23.372;2022-12-19T09:52:10;43.00;;;19.57;;
6135;SDS011;24008;42.664;23.372;2022-12-19T09:54:41;32.93;;;15.10;;
6135;SDS011;24008;42.664;23.372;2022-12-19T09:57:14;37.27;;;19.23;;
6135;SDS011;24008;42.664;23.372;2022-12-19T09:59:46;36.33;;;18.63;;
6135;SDS011;24008;42.664;23.372;2022-12-19T10:02:20;32.57;;;16.37;;
6135;SDS011;24008;42.664;23.372;2022-12-19T10:04:54;35.97;;;16.80;;
6135;SDS011;24008;42.664;23.372;2022-12-19T10:07:26;36.70;;;16.63;;
6135;SDS011;24008;42.664;23.372;2022-12-19T10:09:54;36.53;;;17.63;;
6135;SDS011;24008;42.664;23.372;2022-12-19T10:12:26;37.50;;;17.10;;
6135;SDS011;24008;42.664;23.372;2022-12-19T10:15:07;37.17;;;17.13;;
6135;SDS011;24008;42.664;23.372;2022-12-19T10:20:31;34.67;;;17.83;;
6135;SDS011;24008;42.664;23.372;2022-12-19T10:23:06;38.03;;;16.50;;
6135;SDS011;24008;42.664;23.372;2022-12-19T10:25:54;49.53;;;21.30;;
6135;SDS011;24008;42.664;23.372;2022-12-19T10:28:40;43.80;;;22.27;;
6135;SDS011;24008;42.664;23.372;2022-12-19T10:31:21;39.40;;;18.47;;
6135;SDS011;24008;42.664;23.372;2022-12-19T10:33:54;47.13;;;21.27;;
6135;SDS011;24008;42.664;23.372;2022-12-19T10:36:26;44.37;;;21.13;;
6135;SDS011;24008;42.664;23.372;2022-12-19T10:38:57;33.80;;;17.03;;
6135;SDS011;24008;42.664;23.372;2022-12-19T10:41:31;41.00;;;20.93;;
6135;SDS011;24008;42.664;23.372;2022-12-19T10:44:00;39.20;;;20.33;;
6135;SDS011;24008;42.664;23.372;2022-12-19T10:46:37;39.80;;;20.03;;
6135;SDS011;24008;42.664;23.372;2022-12-19T10:49:09;46.50;;;22.00;;
6135;SDS011;24008;42.664;23.372;2022-12-19T10:51:38;46.07;;;21.20;;
6135;SDS011;24008;42.664;23.372;2022-12-19T10:54:06;45.60;;;21.80;;
6135;SDS011;24008;42.664;23.372;2022-12-19T10:56:33;46.63;;;22.73;;
6135;SDS011;24008;42.664;23.372;2022-12-19T10:59:03;47.77;;;22.20;;
6135;SDS011;24008;42.664;23.372;2022-12-19T11:01:41;33.83;;;15.73;;
6135;SDS011;24008;42.664;23.372;2022-12-19T11:04:12;35.77;;;18.03;;
6135;SDS011;24008;42.664;23.372;2022-12-19T11:06:49;34.93;;;18.20;;
6135;SDS011;24008;42.664;23.372;2022-12-19T11:09:19;37.27;;;19.50;;
6135;SDS011;24008;42.664;23.372;2022-12-19T11:11:48;38.23;;;18.97;;
6135;SDS011;24008;42.664;23.372;2022-12-19T11:14:24;39.23;;;19.73;;
6135;SDS011;24008;42.664;23.372;2022-12-19T11:16:52;39.57;;;19.37;;
6135;SDS011;24008;42.664;23.372;2022-12-19T11:19:19;36.10;;;18.27;;
6135;SDS011;24008;42.664;23.372;2022-12-19T11:21:51;37.07;;;18.93;;
6135;SDS011;24008;42.664;23.372;2022-12-19T11:24:21;40.30;;;19.27;;
6135;SDS011;24008;42.664;23.372;2022-12-19T11:26:50;36.57;;;18.03;;
6135;SDS011;24008;42.664;23.372;2022-12-19T11:29:20;35.30;;;17.27;;
6135;SDS011;24008;42.664;23.372;2022-12-19T11:31:54;28.13;;;14.53;;
6135;SDS011;24008;42.664;23.372;2022-12-19T11:34:24;33.00;;;15.77;;
6135;SDS011;24008;42.664;23.372;2022-12-19T11:36:54;27.17;;;13.80;;
6135;SDS011;24008;42.664;23.372;2022-12-19T11:39:31;32.13;;;14.67;;
6135;SDS011;24008;42.664;23.372;2022-12-19T11:42:02;30.33;;;14.97;;
6135;SDS011;24008;42.664;23.372;2022-12-19T11:44:33;28.33;;;14.90;;
6135;SDS011;24008;42.664;23.372;2022-12-19T11:47:10;29.00;;;14.67;;
6135;SDS011;24008;42.664;23.372;2022-12-19T11:49:47;23.00;;;9.90;;
6135;SDS011;24008;42.664;23.372;2022-12-19T11:52:22;33.47;;;15.70;;
6135;SDS011;24008;42.664;23.372;2022-12-19T11:55:02;26.13;;;12.50;;
6135;SDS011;24008;42.664;23.372;2022-12-19T11:57:32;21.67;;;10.63;;
6135;SDS011;24008;42.664;23.372;2022-12-19T12:00:00;33.23;;;13.93;;
6135;SDS011;24008;42.664;23.372;2022-12-19T12:02:41;33.33;;;15.27;;
6135;SDS011;24008;42.664;23.372;2022-12-19T12:05:40;27.03;;;13.60;;
6135;SDS011;24008;42.664;23.372;2022-12-19T12:08:19;28.30;;;14.30;;
6135;SDS011;24008;42.664;23.372;2022-12-19T12:11:08;23.27;;;12.10;;
6135;SDS011;24008;42.664;23.372;2022-12-19T12:13:51;32.97;;;15.13;;
6135;SDS011;24008;42.664;23.372;2022-12-19T12:16:32;22.40;;;10.33;;
6135;SDS011;24008;42.664;23.372;2022-12-19T12:19:12;23.50;;;12.47;;
6135;SDS011;24008;42.664;23.372;2022-12-19T12:21:52;29.27;;;14.93;;
6135;SDS011;24008;42.664;23.372;2022-12-19T12:24:32;30.60;;;14.23;;
6135;SDS011;24008;42.664;23.372;2022-12-19T12:27:09;25.40;;;13.90;;
6135;SDS011;24008;42.664;23.372;2022-12-19T12:29:49;29.77;;;13.60;;
6135;SDS011;24008;42.664;23.372;2022-12-19T12:32:24;27.70;;;14.97;;
6135;SDS011;24008;42.664;23.372;2022-12-19T12:35:02;25.10;;;11.70;;
6135;SDS011;24008;42.664;23.372;2022-12-19T12:37:42;30.50;;;14.87;;
6135;SDS011;24008;42.664;23.372;2022-12-19T12:40:31;24.27;;;12.77;;
6135;SDS011;24008;42.664;23.372;2022-12-19T12:43:11;26.57;;;14.80;;
6135;SDS011;24008;42.664;23.372;2022-12-19T12:45:52;28.00;;;14.27;;
6135;SDS011;24008;42.664;23.372;2022-12-19T12:48:21;27.53;;;13.50;;
6135;SDS011;24008;42.664;23.372;2022-12-19T12:50:53;28.57;;;13.67;;
6135;SDS011;24008;42.664;23.372;2022-12-19T12:53:23;29.20;;;15.03;;
6135;SDS011;24008;42.664;23.372;2022-12-19T12:55:53;28.23;;;14.10;;
6135;SDS011;24008;42.664;23.372;2022-12-19T13:01:14;21.40;;;11.33;;
6135;SDS011;24008;42.664;23.372;2022-12-19T13:03:49;21.60;;;12.07;;
6135;SDS011;24008;42.664;23.372;2022-12-19T13:06:23;31.50;;;12.07;;
6135;SDS011;24008;42.664;23.372;2022-12-19T13:09:19;18.83;;;9.27;;
6135;SDS011;24008;42.664;23.372;2022-12-19T13:11:52;18.57;;;9.07;;
6135;SDS011;24008;42.664;23.372;2022-12-19T13:14:44;17.30;;;8.67;;
6135;SDS011;24008;42.664;23.372;2022-12-19T13:17:12;23.07;;;11.10;;
6135;SDS011;24008;42.664;23.372;2022-12-19T13:19:54;21.53;;;12.00;;
6135;SDS011;24008;42.664;23.372;2022-12-19T13:22:37;19.53;;;10.47;;
6135;SDS011;24008;42.664;23.372;2022-12-19T13:28:13;24.20;;;11.67;;
6135;SDS011;24008;42.664;23.372;2022-12-19T13:31:17;23.43;;;11.67;;
6135;SDS011;24008;42.664;23.372;2022-12-19T13:33:46;18.60;;;10.27;;
6135;SDS011;24008;42.664;23.372;2022-12-19T13:36:48;18.17;;;10.00;;
6135;SDS011;24008;42.664;23.372;2022-12-19T13:39:30;21.13;;;10.77;;
6135;SDS011;24008;42.664;23.372;2022-12-19T13:42:09;24.03;;;11.70;;
6135;SDS011;24008;42.664;23.372;2022-12-19T13:44:56;21.33;;;10.73;;
6135;SDS011;24008;42.664;23.372;2022-12-19T13:47:27;20.43;;;11.27;;
6135;SDS011;24008;42.664;23.372;2022-12-19T13:49:59;21.97;;;11.10;;
6135;SDS011;24008;42.664;23.372;2022-12-19T13:52:30;19.37;;;10.13;;
6135;SDS011;24008;42.664;23.372;2022-12-19T13:54:58;19.03;;;10.37;;
6135;SDS011;24008;42.664;23.372;2022-12-19T13:57:26;22.77;;;12.10;;
6135;SDS011;24008;42.664;23.372;2022-12-19T13:59:55;23.70;;;11.97;;
6135;SDS011;24008;42.664;23.372;2022-12-19T14:02:25;20.97;;;10.63;;
6135;SDS011;24008;42.664;23.372;2022-12-19T14:04:55;20.17;;;10.97;;
6135;SDS011;24008;42.664;23.372;2022-12-19T14:07:25;25.63;;;13.47;;
6135;SDS011;24008;42.664;23.372;2022-12-19T14:09:59;19.00;;;11.33;;
6135;SDS011;24008;42.664;23.372;2022-12-19T14:12:27;26.40;;;12.13;;
6135;SDS011;24008;42.664;23.372;2022-12-19T14:15:20;26.23;;;13.63;;
6135;SDS011;24008;42.664;23.372;2022-12-19T14:17:49;19.87;;;10.77;;
6135;SDS011;24008;42.664;23.372;2022-12-19T14:20:18;22.67;;;11.13;;
6135;SDS011;24008;42.664;23.372;2022-12-19T14:22:46;17.67;;;11.00;;
6135;SDS011;24008;42.664;23.372;2022-12-19T14:25:15;19.30;;;10.77;;
6135;SDS011;24008;42.664;23.372;2022-12-19T14:27:43;18.23;;;10.73;;
6135;SDS011;24008;42.664;23.372;2022-12-19T14:30:18;20.73;;;11.67;;
6135;SDS011;24008;42.664;23.372;2022-12-19T14:32:48;23.07;;;11.43;;
6135;SDS011;24008;42.664;23.372;2022-12-19T14:35:17;24.90;;;12.50;;
6135;SDS011;24008;42.664;23.372;2022-12-19T14:37:47;20.53;;;11.33;;
6135;SDS011;24008;42.664;23.372;2022-12-19T14:40:25;19.30;;;11.07;;
6135;SDS011;24008;42.664;23.372;2022-12-19T14:42:55;22.33;;;12.07;;
6135;SDS011;24008;42.664;23.372;2022-12-19T14:45:42;21.67;;;11.33;;
6135;SDS011;24008;42.664;23.372;2022-12-19T14:48:31;21.27;;;11.63;;
6135;SDS011;24008;42.664;23.372;2022-12-19T14:51:02;21.47;;;11.93;;
6135;SDS011;24008;42.664;23.372;2022-12-19T14:53:36;22.73;;;13.10;;
6135;SDS011;24008;42.664;23.372;2022-12-19T14:56:05;18.23;;;10.03;;
6135;SDS011;24008;42.664;23.372;2022-12-19T14:58:36;24.53;;;12.00;;
6135;SDS011;24008;42.664;23.372;2022-12-19T15:01:04;22.40;;;11.23;;
6135;SDS011;24008;42.664;23.372;2022-12-19T15:03:45;25.00;;;12.10;;
6135;SDS011;24008;42.664;23.372;2022-12-19T15:06:17;25.53;;;13.03;;